Terminal Aerodrome Forecast
Issued by NWS

Home | Current Version | Previous Version | Text Only | Print | Product List | Glossary On
Versions: 1 2 3 4 5 6 7 8 9 10 11 12 13 14 15 16
000
FTUS44 KLZK 011150 AAA
TAFADF
TAF AMD
KADF 011150Z 0112/0212 00000KT 4SM BR BKN250
      TEMPO 0112/0113 1/2SM FG BKN002
     FM011300 VRB03KT P6SM BKN250
      TEMPO 0113/0114 4SM BR
     FM011500 16006KT P6SM SCT050 BKN250
     FM020100 VRB03KT P6SM SCT100 BKN250=

USA.gov is the U.S. government's official web portal to all federal, state and local government web resources and services.